SVYA4: Illinois River nr Savoy AR

                                SHEF ID:       SVYA4     Illinois River at Savoy, AR
STATION TYPE:

STAGE RIV-FLOW BAT-LOAD
ft cfs volt
Ccp-Rev Ccp-Rev Ccp-Rev
(America/Chicago)
05/05 00:00 2.82 132 12.73
05/05 01:00 2.81 131 12.73
05/05 02:00 2.81 131 12.73
05/05 03:00 2.82 132 12.65
05/05 04:00 2.86 140 12.65
05/05 05:00 2.84 136 12.65
05/05 06:00 2.83 134 12.65
05/05 07:00 2.85 138 12.65
05/05 08:00 2.90 148 12.57
05/05 09:00 3.62 323 12.73
05/05 10:00 3.53 297 13.13
05/05 11:00 3.41 264 13.44
05/05 12:00 3.30 236 13.68
05/05 13:00 3.22 216 13.68
05/05 14:00 3.14 198 13.60
05/05 15:00 3.07 182 13.05
05/05 16:00 3.03 174 13.13
05/05 17:00 2.99 166 13.05
05/05 18:00 2.96 159 12.89
05/05 19:00 2.93 153 12.81
05/05 20:00 2.91 149 12.73
05/05 21:00 2.89 146 12.73
05/05 22:00 2.88 144 12.73
05/05 23:00 2.86 140 12.65
Data processed at Wed 06May2026 04:14 GMT

NOTICE: If you are parsing this page

Please convert to using our Data API. Starting early 2026 we will be migrating to: https://water.usace.army.mil with modern pages rendered in JavaScript. When this migration completes you will no longer be able to scrape this page! CWMSDataAPI (CDA)

Timeseries IDs (TSIDs)

TSIDs used from left to right in the data table
SAVO.Stage.Inst.1Hour.0.Ccp-Rev
SAVO.Flow.Inst.1Hour.0.Ccp-Rev
SAVO.Volt-Battery Load.Inst.1Hour.0.Ccp-Rev

                            

All information presented herein is the property of the government of the United States of America and may be revised or deleted at any time without prior notice. Dissemination of this information without the expressed written consent of the Public Affairs Office, Tulsa District U.S. Army Corps of Engineers is strictly prohibited. These data are gathered electronically and, as presented, have NOT undergone any form of quality control. These data are NOT guaranteed to be valid or correct.